Island Lookout — WDF6311 — position and weather

sailwx.info

Track history (hours):
 
Tides and Currents Weather Stations Pressure Air Temp Water Temp Dewpoint Dewpoint Depression Visibility Wind Speed Wind Dir Waves Ship Positions

Island Lookout

Owner: Stevens Towing Company Inc., Yonges Island, SC. More information available from US FCC via Universal Licensing System and Coast Guard Vessel Documentation Center.

Last reported at 2014-Dec-18 21:33 UTC. Time now 2014-Dec-22 03:29 UTC.
Position N 38°51' W 076°26'.

Length 22 m; draft 2.9 m.

Type: Towing. MMSI: 367472930.

Date/timePositionNaut miles runAvg speedWind from/ knotsBaromVisibWave heightAir tempDewpointWater temp
2014-Dec-18 21:33N 38°51' W 076°26'20 6.4
2014-Dec-18 18:28N 39°11' W 076°26'4 4.4
2014-Dec-18 17:33N 39°13' W 076°30'0 0.2
2014-Dec-18 16:34N 39°13' W 076°30'1 1.1
2014-Dec-18 15:33N 39°13' W 076°31'3 2.6
2014-Dec-18 14:33N 39°14' W 076°34'0 0.0
2014-Dec-18 13:33N 39°14' W 076°34'4 3.5
2014-Dec-18 12:33N 39°17' W 076°36'0 0.0
2014-Dec-18 11:34N 39°17' W 076°36'0 0.0
2014-Dec-18 10:33N 39°17' W 076°36'0 0.0
2014-Dec-18 09:34N 39°17' W 076°36'0 0.0
2014-Dec-18 08:33N 39°17' W 076°36'0 0.0
2014-Dec-18 07:34N 39°17' W 076°36'0 0.0
2014-Dec-18 06:34N 39°17' W 076°36'0 0.0
2014-Dec-18 05:33N 39°17' W 076°36'0 0.0
2014-Dec-18 04:34N 39°17' W 076°36'0 0.0
2014-Dec-18 03:33N 39°17' W 076°36'0 0.0
2014-Dec-18 02:34N 39°17' W 076°36'0 0.0
2014-Dec-18 01:33N 39°17' W 076°36'0 0.0
2014-Dec-18 00:34N 39°17' W 076°36'0 0.0
2014-Dec-17 23:33N 39°17' W 076°36'0 0.0
2014-Dec-17 22:34N 39°17' W 076°36'0 0.0
2014-Dec-17 21:33N 39°17' W 076°36'4 3.6
2014-Dec-17 20:34N 39°14' W 076°33'2 2.5
2014-Dec-17 19:33N 39°13' W 076°30'0 0.0
2014-Dec-17 18:34N 39°13' W 076°30'1 1.2
2014-Dec-17 17:34N 39°12' W 076°30'7 6.8
2014-Dec-17 16:32N 39°07' W 076°24'7 6.5
2014-Dec-17 15:26N 39°00' W 076°23'8 7.3
2014-Dec-17 14:22N 38°53' W 076°25'  
2014-Dec-13 08:33N 38°58' W 076°24'9 6.8
2014-Dec-13 07:15N 39°07' W 076°24'4 6.1
2014-Dec-13 06:33N 39°11' W 076°26'6 6.2
2014-Dec-13 05:33N 39°13' W 076°34'1 1.4
2014-Dec-13 04:33N 39°12' W 076°35'0 0.0
2014-Dec-13 03:33N 39°12' W 076°35'0 0.0
2014-Dec-13 02:33N 39°12' W 076°35'0 0.0
2014-Dec-13 01:33N 39°12' W 076°35'0 0.0
2014-Dec-13 00:33N 39°12' W 076°35'0 0.0
2014-Dec-12 23:33N 39°12' W 076°35'0 0.0
2014-Dec-12 22:34N 39°12' W 076°35'0 0.0
2014-Dec-12 21:34N 39°12' W 076°35'1 0.8
2014-Dec-12 20:34N 39°13' W 076°35'6 6.1
2014-Dec-12 19:33N 39°11' W 076°27'6 5.9
2014-Dec-12 18:30N 39°05' W 076°24'7 6.2
2014-Dec-12 17:26N 38°59' W 076°24'  
Track history (hours):
 
Tides and Currents Weather Stations Pressure Air Temp Water Temp Dewpoint Dewpoint Depression Visibility Wind Speed Wind Dir Waves Ship Positions

Island Lookout

Owner: Stevens Towing Company Inc., Yonges Island, SC. More information available from US FCC via Universal Licensing System and Coast Guard Vessel Documentation Center.

Last reported at 2014-Dec-18 21:33 UTC. Time now 2014-Dec-22 03:29 UTC.
Position N 38°51' W 076°26'.

Length 22 m; draft 2.9 m.

Type: Towing. MMSI: 367472930.

Date/timePositionNaut miles runAvg speedWind from/ knotsBaromVisibWave heightAir tempDewpointWater temp
2014-Dec-18 21:33N 38°51' W 076°26'20 6.4
2014-Dec-18 18:28N 39°11' W 076°26'4 4.4
2014-Dec-18 17:33N 39°13' W 076°30'0 0.2
2014-Dec-18 16:34N 39°13' W 076°30'1 1.1
2014-Dec-18 15:33N 39°13' W 076°31'3 2.6
2014-Dec-18 14:33N 39°14' W 076°34'0 0.0
2014-Dec-18 13:33N 39°14' W 076°34'4 3.5
2014-Dec-18 12:33N 39°17' W 076°36'0 0.0
2014-Dec-18 11:34N 39°17' W 076°36'0 0.0
2014-Dec-18 10:33N 39°17' W 076°36'0 0.0
2014-Dec-18 09:34N 39°17' W 076°36'0 0.0
2014-Dec-18 08:33N 39°17' W 076°36'0 0.0
2014-Dec-18 07:34N 39°17' W 076°36'0 0.0
2014-Dec-18 06:34N 39°17' W 076°36'0 0.0
2014-Dec-18 05:33N 39°17' W 076°36'0 0.0
2014-Dec-18 04:34N 39°17' W 076°36'0 0.0
2014-Dec-18 03:33N 39°17' W 076°36'0 0.0
2014-Dec-18 02:34N 39°17' W 076°36'0 0.0
2014-Dec-18 01:33N 39°17' W 076°36'0 0.0
2014-Dec-18 00:34N 39°17' W 076°36'0 0.0
2014-Dec-17 23:33N 39°17' W 076°36'0 0.0
2014-Dec-17 22:34N 39°17' W 076°36'0 0.0
2014-Dec-17 21:33N 39°17' W 076°36'4 3.6
2014-Dec-17 20:34N 39°14' W 076°33'2 2.5
2014-Dec-17 19:33N 39°13' W 076°30'0 0.0
2014-Dec-17 18:34N 39°13' W 076°30'1 1.2
2014-Dec-17 17:34N 39°12' W 076°30'7 6.8
2014-Dec-17 16:32N 39°07' W 076°24'7 6.5
2014-Dec-17 15:26N 39°00' W 076°23'8 7.3
2014-Dec-17 14:22N 38°53' W 076°25'  
2014-Dec-13 08:33N 38°58' W 076°24'9 6.8
2014-Dec-13 07:15N 39°07' W 076°24'4 6.1
2014-Dec-13 06:33N 39°11' W 076°26'6 6.2
2014-Dec-13 05:33N 39°13' W 076°34'1 1.4
2014-Dec-13 04:33N 39°12' W 076°35'0 0.0
2014-Dec-13 03:33N 39°12' W 076°35'0 0.0
2014-Dec-13 02:33N 39°12' W 076°35'0 0.0
2014-Dec-13 01:33N 39°12' W 076°35'0 0.0
2014-Dec-13 00:33N 39°12' W 076°35'0 0.0
2014-Dec-12 23:33N 39°12' W 076°35'0 0.0
2014-Dec-12 22:34N 39°12' W 076°35'0 0.0
2014-Dec-12 21:34N 39°12' W 076°35'1 0.8
2014-Dec-12 20:34N 39°13' W 076°35'6 6.1
2014-Dec-12 19:33N 39°11' W 076°27'6 5.9
2014-Dec-12 18:30N 39°05' W 076°24'7 6.2
2014-Dec-12 17:26N 38°59' W 076°24'  

Dump ship's entire track history